createdAt,value
2018-09-14T00:00:05.090Z,100292.37
2018-09-14T00:02:34.183Z,100297.59
2018-09-14T00:05:03.214Z,100301.53
2018-09-14T00:07:32.209Z,100302.97
2018-09-14T00:10:01.273Z,100298.39
2018-09-14T00:12:30.409Z,100301.17
2018-09-14T00:14:59.426Z,100292.81
2018-09-14T00:17:28.435Z,100291.70
2018-09-14T00:19:57.433Z,100293.94
2018-09-14T00:22:26.438Z,100291.85
2018-09-14T00:24:55.437Z,100292.20
2018-09-14T00:27:24.457Z,100292.69
2018-09-14T00:29:53.465Z,100288.91
2018-09-14T00:32:22.448Z,100286.60
2018-09-14T00:34:51.446Z,100285.93
2018-09-14T00:37:20.433Z,100284.27
2018-09-14T00:39:49.434Z,100278.31
2018-09-14T00:42:18.435Z,100278.95
2018-09-14T00:44:47.422Z,100277.28
2018-09-14T00:47:16.402Z,100273.83
2018-09-14T00:49:45.452Z,100276.67
2018-09-14T00:52:14.448Z,100278.98
2018-09-14T00:54:43.455Z,100275.65
2018-09-14T00:57:12.451Z,100278.84
2018-09-14T00:59:41.438Z,100276.70
2018-09-14T01:02:10.438Z,100277.53
2018-09-14T01:04:39.426Z,100276.02
2018-09-14T01:07:08.435Z,100270.48
2018-09-14T01:09:37.436Z,100276.34
2018-09-14T01:12:06.453Z,100273.88
2018-09-14T01:14:35.434Z,100281.02
2018-09-14T01:17:04.561Z,100279.91
2018-09-14T01:19:33.502Z,100277.92
2018-09-14T01:22:02.575Z,100278.45
2018-09-14T01:24:31.647Z,100280.80
2018-09-14T01:27:00.650Z,100285.45
2018-09-14T01:29:29.623Z,100283.02
2018-09-14T01:31:58.900Z,100280.87
2018-09-14T01:34:27.898Z,100276.61
2018-09-14T01:36:56.959Z,100271.02
2018-09-14T01:39:25.954Z,100278.39
2018-09-14T01:41:54.942Z,100279.50
2018-09-14T01:44:23.966Z,100279.22
2018-09-14T01:46:52.960Z,100276.66
2018-09-14T01:49:21.935Z,100280.27
2018-09-14T01:51:51.446Z,100282.89
2018-09-14T01:54:20.430Z,100278.80
2018-09-14T01:56:49.446Z,100279.34
2018-09-14T01:59:18.434Z,100274.93
2018-09-14T02:01:47.437Z,100272.56
2018-09-14T02:04:16.459Z,100279.41
2018-09-14T02:06:45.459Z,100278.45
2018-09-14T02:09:14.463Z,100279.48
2018-09-14T02:11:43.478Z,100278.02
2018-09-14T02:14:12.471Z,100272.95
2018-09-14T02:16:41.471Z,100273.59
2018-09-14T02:19:10.458Z,100265.72
2018-09-14T02:21:39.476Z,100267.99
2018-09-14T02:24:08.551Z,100267.99
2018-09-14T02:26:37.562Z,100272.09
2018-09-14T02:29:06.554Z,100267.16
2018-09-14T02:31:36.130Z,100270.77
2018-09-14T02:34:05.782Z,100266.64
2018-09-14T02:36:34.745Z,100268.56
2018-09-14T02:39:04.467Z,100261.72
2018-09-14T02:41:33.454Z,100261.05
2018-09-14T02:44:02.459Z,100265.37
2018-09-14T02:46:31.438Z,100261.78
2018-09-14T02:49:00.426Z,100259.64
2018-09-14T02:51:29.417Z,100264.41
2018-09-14T02:53:58.418Z,100260.82
2018-09-14T02:56:27.399Z,100259.16
2018-09-14T02:58:56.467Z,100266.68
2018-09-14T03:01:25.455Z,100262.45
2018-09-14T03:03:54.509Z,100261.78
2018-09-14T03:06:23.497Z,100264.98
2018-09-14T03:08:52.498Z,100267.89
2018-09-14T03:11:21.492Z,100264.63
2018-09-14T03:13:50.505Z,100262.48
2018-09-14T03:16:19.507Z,100272.11
2018-09-14T03:18:48.506Z,100270.80
2018-09-14T03:21:17.590Z,100262.57
2018-09-14T03:23:46.533Z,100264.23
2018-09-14T03:26:15.742Z,100267.63
2018-09-14T03:28:44.734Z,100271.08
2018-09-14T03:31:13.830Z,100265.77
2018-09-14T03:33:42.786Z,100265.77
2018-09-14T03:36:11.901Z,100266.79
2018-09-14T03:38:40.906Z,100263.14
2018-09-14T03:41:09.884Z,100263.81
2018-09-14T03:43:39.038Z,100265.06
2018-09-14T03:46:08.023Z,100263.81
2018-09-14T03:48:37.083Z,100270.30
2018-09-14T03:51:06.276Z,100266.05
2018-09-14T03:53:35.306Z,100270.32
2018-09-14T03:56:04.295Z,100259.28
2018-09-14T03:58:33.298Z,100272.18
2018-09-14T04:01:02.320Z,100269.72
2018-09-14T04:03:31.342Z,100276.88
2018-09-14T04:06:00.387Z,100270.87
2018-09-14T04:08:29.385Z,100269.98
2018-09-14T04:10:58.370Z,100273.02
2018-09-14T04:13:27.362Z,100273.22
2018-09-14T04:15:56.362Z,100272.14
2018-09-14T04:18:25.342Z,100266.89
2018-09-14T04:20:54.410Z,100261.84
2018-09-14T04:23:23.443Z,100273.02
2018-09-14T04:25:52.382Z,100271.35
2018-09-14T04:28:21.365Z,100274.33
2018-09-14T04:30:50.592Z,100279.30
2018-09-14T04:33:19.578Z,100269.77
2018-09-14T04:35:48.584Z,100278.95
2018-09-14T04:38:17.601Z,100270.41
2018-09-14T04:40:46.559Z,100276.01
2018-09-14T04:43:15.541Z,100275.02
2018-09-14T04:45:44.555Z,100278.75
2018-09-14T04:48:13.560Z,100281.53
2018-09-14T04:50:42.549Z,100282.82
2018-09-14T04:53:11.544Z,100284.13
2018-09-14T04:55:40.537Z,100288.55
2018-09-14T04:58:09.518Z,100293.72
2018-09-14T05:00:38.571Z,100287.66
2018-09-14T05:03:07.627Z,100291.52
2018-09-14T05:05:36.878Z,100289.61
2018-09-14T05:08:05.868Z,100291.27
2018-09-14T05:10:34.815Z,100298.08
2018-09-14T05:13:03.787Z,100282.89
2018-09-14T05:15:32.774Z,100285.75
2018-09-14T05:18:03.302Z,100284.48
2018-09-14T05:20:32.603Z,100282.84
2018-09-14T05:23:01.767Z,100282.97
2018-09-14T05:25:31.050Z,100286.55
2018-09-14T05:28:00.039Z,100286.07
2018-09-14T05:30:29.032Z,100286.23
2018-09-14T05:32:58.020Z,100289.33
2018-09-14T05:35:27.008Z,100284.48
2018-09-14T05:37:55.990Z,100286.76
2018-09-14T05:40:24.987Z,100285.52
2018-09-14T05:42:53.982Z,100300.59
2018-09-14T05:45:22.977Z,100299.95
2018-09-14T05:47:51.991Z,100312.34
2018-09-14T05:50:20.990Z,100309.69
2018-09-14T05:52:49.974Z,100310.48
2018-09-14T05:55:19.042Z,100311.37
2018-09-14T05:57:48.033Z,100317.26
2018-09-14T06:00:17.031Z,100317.87
2018-09-14T06:02:46.024Z,100320.91
2018-09-14T06:05:15.014Z,100318.97
2018-09-14T06:07:43.995Z,100329.53
2018-09-14T06:10:13.191Z,100329.25
2018-09-14T06:12:42.180Z,100333.73
2018-09-14T06:15:11.177Z,100333.86
2018-09-14T06:17:40.178Z,100344.08
2018-09-14T06:20:09.162Z,100346.09
2018-09-14T06:22:38.169Z,100341.45
2018-09-14T06:25:07.243Z,100339.34
2018-09-14T06:27:36.395Z,100338.83
2018-09-14T06:30:05.383Z,100333.04
2018-09-14T06:32:34.399Z,100337.17
2018-09-14T06:35:03.384Z,100340.47
2018-09-14T06:37:32.383Z,100328.87
2018-09-14T06:40:01.371Z,100329.91
2018-09-14T06:42:30.375Z,100323.72
2018-09-14T06:44:59.470Z,100325.19
2018-09-14T06:47:28.362Z,100323.56
2018-09-14T06:49:57.598Z,100320.53
2018-09-14T06:52:26.595Z,100325.17
2018-09-14T06:54:55.594Z,100325.45
2018-09-14T06:57:24.720Z,100332.72
2018-09-14T06:59:53.702Z,100321.09
2018-09-14T07:02:22.724Z,100325.88
2018-09-14T07:04:51.764Z,100322.14
2018-09-14T07:07:20.739Z,100317.61
2018-09-14T07:09:49.749Z,100320.84
2018-09-14T07:12:18.734Z,100324.47
2018-09-14T07:14:47.751Z,100324.74
2018-09-14T07:17:16.746Z,100327.95
2018-09-14T07:19:45.747Z,100333.08
2018-09-14T07:22:15.015Z,100335.63
2018-09-14T07:24:44.038Z,100339.65
2018-09-14T07:27:13.014Z,100348.67
2018-09-14T07:29:41.973Z,100350.04
2018-09-14T07:32:11.114Z,100353.22
2018-09-14T07:34:40.055Z,100349.88
2018-09-14T07:37:09.139Z,100352.63
2018-09-14T07:39:38.143Z,100356.36
2018-09-14T07:42:07.159Z,100356.22
2018-09-14T07:44:36.158Z,100343.88
2018-09-14T07:47:05.478Z,100345.37
2018-09-14T07:49:34.426Z,100342.45
2018-09-14T07:52:03.464Z,100349.28
2018-09-14T07:54:32.458Z,100350.23
2018-09-14T07:57:01.422Z,100348.45
2018-09-14T07:59:30.415Z,100358.98
2018-09-14T08:01:59.441Z,100354.91
2018-09-14T08:04:28.537Z,100360.80
2018-09-14T08:06:57.530Z,100367.38
2018-09-14T08:09:26.527Z,100366.91
2018-09-14T08:11:56.488Z,100358.70
2018-09-14T08:14:25.648Z,100360.02
2018-09-14T08:16:54.590Z,100362.47
2018-09-14T08:19:23.566Z,100366.67
2018-09-14T08:21:52.755Z,100364.55
2018-09-14T08:24:21.602Z,100367.66
2018-09-14T08:26:50.663Z,100368.14
2018-09-14T08:29:19.582Z,100365.34
2018-09-14T08:31:48.770Z,100365.84
2018-09-14T08:34:17.796Z,100373.95
2018-09-14T08:36:46.892Z,100375.94
2018-09-14T08:39:15.888Z,100377.24
2018-09-14T08:41:44.846Z,100380.56
2018-09-14T08:44:13.830Z,100381.74
2018-09-14T08:46:42.911Z,100383.59
2018-09-14T08:49:11.967Z,100383.93
2018-09-14T08:51:40.958Z,100384.34
2018-09-14T08:54:09.897Z,100388.92
2018-09-14T08:56:38.894Z,100386.72
2018-09-14T08:59:07.872Z,100396.28
2018-09-14T09:01:36.878Z,100399.75
2018-09-14T09:04:05.868Z,100400.25
2018-09-14T09:06:34.854Z,100403.04
2018-09-14T09:09:04.010Z,100402.98
2018-09-14T09:11:33.019Z,100398.75
2018-09-14T09:14:02.007Z,100398.42
2018-09-14T09:16:30.987Z,100393.55
2018-09-14T09:18:59.986Z,100389.05
2018-09-14T09:21:28.983Z,100389.30
2018-09-14T09:23:58.392Z,100388.67
2018-09-14T09:26:27.442Z,100384.03
2018-09-14T09:28:56.326Z,100384.38
2018-09-14T09:31:25.477Z,100385.02
2018-09-14T09:33:54.662Z,100381.23
2018-09-14T09:36:23.658Z,100385.70
2018-09-14T09:38:52.636Z,100387.31
2018-09-14T09:41:21.621Z,100389.29
2018-09-14T09:43:50.657Z,100384.48
2018-09-14T09:46:19.645Z,100384.16
2018-09-14T09:48:48.641Z,100390.12
2018-09-14T09:51:17.731Z,100386.00
2018-09-14T09:53:46.626Z,100386.84
2018-09-14T09:56:15.619Z,100392.28
2018-09-14T09:58:44.758Z,100391.97
2018-09-14T10:01:19.132Z,100393.30
2018-09-14T10:03:53.517Z,100394.59
2018-09-14T10:06:25.118Z,100389.48
2018-09-14T10:08:54.874Z,100385.86
2018-09-14T10:11:23.994Z,100391.15
2018-09-14T10:13:53.335Z,100393.30
2018-09-14T10:16:22.380Z,100385.69
2018-09-14T10:18:51.373Z,100388.67
2018-09-14T10:21:20.492Z,100385.03
2018-09-14T10:23:49.350Z,100383.00
2018-09-14T10:26:18.443Z,100381.54
2018-09-14T10:28:47.493Z,100378.66
2018-09-14T10:31:16.462Z,100378.79
2018-09-14T10:33:45.583Z,100371.11
2018-09-14T10:36:14.515Z,100370.89
2018-09-14T10:38:43.509Z,100368.39
2018-09-14T10:41:12.500Z,100361.30
2018-09-14T10:43:41.559Z,100352.92
2018-09-14T10:46:10.552Z,100354.45
2018-09-14T10:48:39.526Z,100349.02
2018-09-14T10:51:08.563Z,100354.45
2018-09-14T10:53:37.558Z,100357.95
2018-09-14T10:56:06.618Z,100353.55
2018-09-14T10:58:41.159Z,100344.20
2018-09-14T11:01:10.917Z,100347.47
2018-09-14T11:03:39.958Z,100346.47
2018-09-14T11:06:08.908Z,100339.85
2018-09-14T11:08:37.891Z,100338.91
2018-09-14T11:11:06.939Z,100334.31
2018-09-14T11:13:36.030Z,100333.86
2018-09-14T11:16:04.961Z,100337.34
2018-09-14T11:18:34.020Z,100333.34
2018-09-14T11:21:02.930Z,100339.36
2018-09-14T11:23:31.931Z,100331.33
2018-09-14T11:26:00.990Z,100332.31
2018-09-14T11:28:29.982Z,100330.84
2018-09-14T11:30:58.962Z,100325.67
2018-09-14T11:33:28.029Z,100326.42
2018-09-14T11:35:57.006Z,100323.56
2018-09-14T11:38:26.076Z,100320.91
2018-09-14T11:40:55.077Z,100319.05
2018-09-14T11:43:24.042Z,100310.94
2018-09-14T11:45:53.068Z,100314.63
2018-09-14T11:48:22.029Z,100309.09
2018-09-14T11:50:51.053Z,100309.55
2018-09-14T11:53:19.996Z,100307.22
2018-09-14T11:55:48.967Z,100312.33
2018-09-14T11:58:18.022Z,100306.06
2018-09-14T12:00:48.067Z,100302.04
2018-09-14T12:03:17.050Z,100291.58
2018-09-14T12:05:46.055Z,100296.78
2018-09-14T12:08:15.035Z,100293.28
2018-09-14T12:10:44.015Z,100288.81
2018-09-14T12:13:13.164Z,100288.48
2018-09-14T12:15:42.179Z,100285.34
2018-09-14T12:18:11.243Z,100289.55
2018-09-14T12:20:40.222Z,100282.47
2018-09-14T12:23:09.213Z,100280.19
2018-09-14T12:25:38.850Z,100279.56
2018-09-14T12:28:08.751Z,100273.97
2018-09-14T12:30:37.927Z,100276.25
2018-09-14T12:33:07.458Z,100273.22
2018-09-14T12:35:36.509Z,100278.77
2018-09-14T12:38:05.604Z,100277.59
2018-09-14T12:40:34.570Z,100283.89
2018-09-14T12:43:03.635Z,100276.29
2018-09-14T12:45:32.671Z,100278.25
2018-09-14T12:48:01.983Z,100276.95
2018-09-14T12:50:30.914Z,100279.78
2018-09-14T12:53:00.018Z,100287.07
2018-09-14T12:55:29.057Z,100285.08
2018-09-14T12:57:58.047Z,100290.14
2018-09-14T13:00:27.054Z,100286.64
2018-09-14T13:02:56.037Z,100282.17
2018-09-14T13:05:25.026Z,100284.42
2018-09-14T13:07:54.011Z,100284.48
2018-09-14T13:10:23.071Z,100281.23
2018-09-14T13:12:52.071Z,100286.50
2018-09-14T13:15:21.054Z,100285.38
2018-09-14T13:17:50.061Z,100285.27
2018-09-14T13:20:19.056Z,100278.45
2018-09-14T13:22:48.954Z,100273.09
2018-09-14T13:25:17.971Z,100280.53
2018-09-14T13:27:46.991Z,100275.23
2018-09-14T13:30:16.061Z,100272.94
2018-09-14T13:32:49.218Z,100270.95
2018-09-14T13:35:18.328Z,100271.16
2018-09-14T13:37:47.422Z,100271.22
2018-09-14T13:40:16.366Z,100263.36
2018-09-14T13:42:45.591Z,100260.16
2018-09-14T13:45:14.630Z,100261.66
2018-09-14T13:47:43.606Z,100256.72
2018-09-14T13:50:12.616Z,100258.38
2018-09-14T13:52:41.722Z,100256.16
2018-09-14T13:55:10.683Z,100249.83
2018-09-14T13:57:39.785Z,100239.69
2018-09-14T14:00:08.734Z,100245.88
2018-09-14T14:02:37.771Z,100238.50
2018-09-14T14:05:06.783Z,100240.66
2018-09-14T14:07:35.775Z,100239.51
2018-09-14T14:10:04.756Z,100243.16
2018-09-14T14:12:33.751Z,100240.98
2018-09-14T14:15:02.736Z,100237.89
2018-09-14T14:17:31.777Z,100231.84
2018-09-14T14:20:00.716Z,100227.55
2018-09-14T14:22:29.746Z,100227.29
2018-09-14T14:24:58.747Z,100232.67
2018-09-14T14:27:27.754Z,100228.94
2018-09-14T14:29:56.747Z,100222.44
2018-09-14T14:32:25.734Z,100220.48
2018-09-14T14:34:54.926Z,100216.03
2018-09-14T14:37:24.003Z,100215.58
2018-09-14T14:39:53.010Z,100214.20
2018-09-14T14:42:22.028Z,100210.35
2018-09-14T14:44:50.993Z,100213.38
2018-09-14T14:47:20.008Z,100208.83
2018-09-14T14:49:48.951Z,100202.81
2018-09-14T14:52:17.962Z,100200.08
2018-09-14T14:54:47.165Z,100199.34
2018-09-14T14:57:16.178Z,100195.84
2018-09-14T14:59:45.192Z,100188.80
2018-09-14T15:02:14.141Z,100191.32
2018-09-14T15:04:43.116Z,100190.59
2018-09-14T15:07:12.110Z,100192.45
2018-09-14T15:09:41.096Z,100197.13
2018-09-14T15:12:10.142Z,100190.05
2018-09-14T15:14:39.122Z,100188.89
2018-09-14T15:17:08.107Z,100187.81
2018-09-14T15:19:37.079Z,100175.88
2018-09-14T15:22:06.087Z,100181.22
2018-09-14T15:24:41.786Z,100174.72
2018-09-14T15:27:10.770Z,100174.80
2018-09-14T15:29:39.747Z,100171.91
2018-09-14T15:32:08.763Z,100169.00
2018-09-14T15:34:37.734Z,100167.22
2018-09-14T15:37:07.591Z,100169.79
2018-09-14T15:39:36.574Z,100173.48
2018-09-14T15:42:05.553Z,100176.20
2018-09-14T15:44:34.539Z,100176.57
2018-09-14T15:47:03.615Z,100177.48
2018-09-14T15:49:32.571Z,100175.40
2018-09-14T15:52:02.416Z,100175.07
2018-09-14T15:54:31.391Z,100172.75
2018-09-14T15:57:00.374Z,100171.03
2018-09-14T15:59:29.353Z,100170.67
2018-09-14T16:01:58.326Z,100179.22
2018-09-14T16:04:27.389Z,100181.76
2018-09-14T16:06:56.487Z,100169.98
2018-09-14T16:09:25.494Z,100183.91
2018-09-14T16:11:54.489Z,100179.20
2018-09-14T16:14:23.458Z,100177.40
2018-09-14T16:16:52.494Z,100181.77
2018-09-14T16:19:21.496Z,100186.91
2018-09-14T16:21:50.599Z,100194.23
2018-09-14T16:24:19.591Z,100195.11
2018-09-14T16:26:48.570Z,100195.45
2018-09-14T16:29:17.551Z,100192.84
2018-09-14T16:31:46.600Z,100191.93
2018-09-14T16:34:15.508Z,100188.48
2018-09-14T16:36:44.478Z,100192.30
2018-09-14T16:39:13.607Z,100190.66
2018-09-14T16:41:42.574Z,100197.23
2018-09-14T16:44:11.572Z,100195.91
2018-09-14T16:46:40.547Z,100199.27
2018-09-14T16:49:09.758Z,100200.94
2018-09-14T16:51:38.793Z,100205.94
2018-09-14T16:54:07.722Z,100206.59
2018-09-14T16:56:36.686Z,100209.09
2018-09-14T16:59:05.763Z,100207.93
2018-09-14T17:01:34.756Z,100200.50
2018-09-14T17:04:03.734Z,100210.09
2018-09-14T17:06:32.715Z,100210.64
2018-09-14T17:09:01.794Z,100209.47
2018-09-14T17:11:30.764Z,100214.76
2018-09-14T17:13:59.755Z,100210.98
2018-09-14T17:16:28.726Z,100212.95
2018-09-14T17:18:57.750Z,100215.97
2018-09-14T17:21:26.781Z,100214.50
2018-09-14T17:23:55.711Z,100219.63
2018-09-14T17:26:24.683Z,100222.94
2018-09-14T17:28:53.727Z,100226.25
2018-09-14T17:31:22.703Z,100229.37
2018-09-14T17:33:51.687Z,100222.30
2018-09-14T17:36:20.658Z,100225.09
2018-09-14T17:38:49.643Z,100232.17
2018-09-14T17:41:18.760Z,100226.87
2018-09-14T17:43:47.795Z,100224.56
2018-09-14T17:46:16.870Z,100220.59
2018-09-14T17:48:45.874Z,100220.61
2018-09-14T17:51:14.863Z,100224.06
2018-09-14T17:53:43.854Z,100226.84
2018-09-14T17:56:12.835Z,100230.48
2018-09-14T17:58:41.814Z,100231.78
2018-09-14T18:01:10.797Z,100230.80
2018-09-14T18:03:39.859Z,100234.75
2018-09-14T18:06:08.875Z,100233.76
2018-09-14T18:08:37.849Z,100241.33
2018-09-14T18:11:06.923Z,100242.62
2018-09-14T18:13:35.906Z,100239.69
2018-09-14T18:16:04.870Z,100242.64
2018-09-14T18:18:33.986Z,100245.91
2018-09-14T18:21:02.907Z,100250.17
2018-09-14T18:23:32.002Z,100246.05
2018-09-14T18:26:01.190Z,100244.25
2018-09-14T18:28:30.168Z,100252.30
2018-09-14T18:30:59.134Z,100256.88
2018-09-14T18:33:28.119Z,100259.03
2018-09-14T18:35:57.114Z,100260.44
2018-09-14T18:38:26.050Z,100261.59
2018-09-14T18:40:55.261Z,100264.55
2018-09-14T18:43:24.250Z,100272.11
2018-09-14T18:45:53.234Z,100271.77
2018-09-14T18:48:22.239Z,100276.38
2018-09-14T18:50:51.229Z,100273.92
2018-09-14T18:53:20.210Z,100268.94
2018-09-14T18:55:49.187Z,100274.72
2018-09-14T18:58:18.222Z,100266.49
2018-09-14T19:00:47.195Z,100268.13
2018-09-14T19:03:16.219Z,100267.47
2018-09-14T19:05:45.209Z,100271.74
2018-09-14T19:08:14.225Z,100274.72
2018-09-14T19:10:43.476Z,100273.03
2018-09-14T19:13:12.434Z,100275.02
2018-09-14T19:15:41.464Z,100274.66
2018-09-14T19:18:10.401Z,100277.30
2018-09-14T19:20:39.374Z,100283.89
2018-09-14T19:23:08.459Z,100281.14
2018-09-14T19:25:37.450Z,100283.25
2018-09-14T19:28:06.426Z,100284.66
2018-09-14T19:30:35.406Z,100284.77
2018-09-14T19:33:04.438Z,100292.79
2018-09-14T19:35:33.427Z,100292.88
2018-09-14T19:38:02.452Z,100290.59
2018-09-14T19:40:31.447Z,100289.56
2018-09-14T19:43:00.422Z,100283.31
2018-09-14T19:45:29.402Z,100292.67
2018-09-14T19:47:58.402Z,100290.19
2018-09-14T19:50:27.379Z,100288.01
2018-09-14T19:52:56.371Z,100295.05
2018-09-14T19:55:25.369Z,100293.67
2018-09-14T19:57:54.375Z,100289.06
2018-09-14T20:00:23.351Z,100297.94
2018-09-14T20:02:52.358Z,100299.19
2018-09-14T20:05:21.359Z,100302.05
2018-09-14T20:07:50.350Z,100301.83
2018-09-14T20:10:19.363Z,100298.23
2018-09-14T20:12:48.402Z,100302.67
2018-09-14T20:15:17.394Z,100298.92
2018-09-14T20:17:46.441Z,100308.98
2018-09-14T20:20:15.435Z,100305.54
2018-09-14T20:22:44.419Z,100309.97
2018-09-14T20:25:13.415Z,100314.91
2018-09-14T20:27:42.396Z,100313.66
2018-09-14T20:30:11.419Z,100316.23
2018-09-14T20:32:40.394Z,100315.37
2018-09-14T20:35:09.482Z,100313.29
2018-09-14T20:37:38.413Z,100319.80
2018-09-14T20:40:07.398Z,100322.72
2018-09-14T20:42:36.366Z,100317.84
2018-09-14T20:45:05.412Z,100323.80
2018-09-14T20:47:34.398Z,100320.53
2018-09-14T20:50:03.388Z,100318.25
2018-09-14T20:52:32.563Z,100318.34
2018-09-14T20:55:01.570Z,100310.86
2018-09-14T20:57:36.915Z,100318.87
2018-09-14T21:00:05.918Z,100318.15
2018-09-14T21:02:34.911Z,100317.00
2018-09-14T21:05:03.896Z,100313.34
2018-09-14T21:07:32.879Z,100319.45
2018-09-14T21:10:01.898Z,100313.36
2018-09-14T21:12:30.903Z,100316.15
2018-09-14T21:14:59.876Z,100321.02
2018-09-14T21:17:28.949Z,100324.39
2018-09-14T21:19:57.940Z,100338.06
2018-09-14T21:22:26.953Z,100333.48
2018-09-14T21:24:55.927Z,100339.95
2018-09-14T21:27:24.946Z,100342.16
2018-09-14T21:29:53.933Z,100333.49
2018-09-14T21:32:23.031Z,100341.44
2018-09-14T21:34:52.132Z,100349.52
2018-09-14T21:37:21.109Z,100355.92
2018-09-14T21:39:50.108Z,100347.42
2018-09-14T21:42:19.097Z,100354.95
2018-09-14T21:44:48.075Z,100355.50
2018-09-14T21:47:17.112Z,100356.27
2018-09-14T21:49:46.078Z,100355.92
2018-09-14T21:52:15.078Z,100354.29
2018-09-14T21:54:44.047Z,100355.44
2018-09-14T21:57:13.039Z,100358.77
2018-09-14T21:59:42.020Z,100360.22
2018-09-14T22:02:11.022Z,100366.14
2018-09-14T22:04:40.021Z,100370.14
2018-09-14T22:07:09.344Z,100370.44
2018-09-14T22:09:38.311Z,100373.73
2018-09-14T22:12:07.314Z,100375.05
2018-09-14T22:14:36.294Z,100378.22
2018-09-14T22:17:05.286Z,100370.84
2018-09-14T22:19:34.258Z,100375.75
2018-09-14T22:22:03.298Z,100369.18
2018-09-14T22:24:32.235Z,100373.90
2018-09-14T22:27:01.229Z,100374.00
2018-09-14T22:29:30.198Z,100378.91
2018-09-14T22:31:59.191Z,100379.55
2018-09-14T22:34:28.171Z,100381.77
2018-09-14T22:36:57.174Z,100380.08
2018-09-14T22:39:26.142Z,100377.86
2018-09-14T22:41:55.131Z,100389.30
2018-09-14T22:44:24.145Z,100382.52
2018-09-14T22:46:53.143Z,100393.28
2018-09-14T22:49:22.115Z,100393.56
2018-09-14T22:51:51.111Z,100399.78
2018-09-14T22:54:20.094Z,100394.78
2018-09-14T22:56:49.082Z,100393.14
2018-09-14T22:59:18.056Z,100388.86
2018-09-14T23:01:51.354Z,100393.22
2018-09-14T23:04:20.357Z,100404.92
2018-09-14T23:06:50.329Z,100405.68
2018-09-14T23:09:19.398Z,100411.81
2018-09-14T23:11:48.374Z,100401.78
2018-09-14T23:14:17.362Z,100400.27
2018-09-14T23:16:46.342Z,100404.77
2018-09-14T23:19:15.317Z,100405.39
2018-09-14T23:21:44.301Z,100404.56
2018-09-14T23:24:13.372Z,100407.74
2018-09-14T23:26:42.357Z,100410.84
2018-09-14T23:29:11.326Z,100412.52
2018-09-14T23:31:40.298Z,100416.09
2018-09-14T23:34:09.282Z,100425.76
2018-09-14T23:36:38.250Z,100423.58
2018-09-14T23:39:08.761Z,100421.07
2018-09-14T23:41:37.867Z,100416.66
2018-09-14T23:44:06.865Z,100421.75
2018-09-14T23:46:35.847Z,100429.86
2018-09-14T23:49:04.840Z,100421.91
2018-09-14T23:51:33.910Z,100430.17
2018-09-14T23:54:02.907Z,100433.16
2018-09-14T23:56:31.882Z,100437.08
2018-09-14T23:59:01.016Z,100437.19
